This is the latest recevied weather packets stored in our database for station/object K4CRS-13. If no packets are shown the sender has not sent any weather packets the latest 10 day(s).
| Time | Temp. | Humidity | Pressure | Rain* | Wind** | Luminosity | Snow |
|---|---|---|---|---|---|---|---|
| 1787608946 | 32.78° C | 46% | 1050.4 hPa | 0 mm | - | 289 W/m² | - |
| 1787608646 | 32.22° C | 45% | 1050.4 hPa | 0 mm | - | 305 W/m² | - |
| 1787608341 | 32.78° C | 45% | 1050.3 hPa | 0 mm | - | 304 W/m² | - |
| 1787608038 | 32.22° C | 45% | 1050.3 hPa | 0 mm | - | 288 W/m² | - |
| 1787607734 | 32.78° C | 46% | 1050.3 hPa | 0 mm | - | 363 W/m² | - |
| 1787607430 | 32.22° C | 47% | 1050.1 hPa | 0 mm | - | 391 W/m² | - |
| 1787607127 | 32.22° C | 45% | 1050.1 hPa | 0 mm | - | 404 W/m² | - |
| 1787606822 | 32.22° C | 47% | 1050.5 hPa | 0 mm | - | 424 W/m² | - |
| 1787606521 | 32.78° C | 45% | 1050.2 hPa | 0 mm | - | 442 W/m² | - |
| 1787606220 | 32.78° C | 48% | 1050.4 hPa | 0 mm | - | 457 W/m² | - |
| 1787605914 | 32.78° C | 46% | 1050.4 hPa | 0 mm | - | 465 W/m² | - |
| 1787605613 | 32.22° C | 47% | 1050.5 hPa | 0 mm | - | 498 W/m² | - |
| 1787605309 | 32.22° C | 46% | 1050.5 hPa | 0 mm | - | 121 W/m² | - |
| 1787605004 | 32.78° C | 47% | 1050.7 hPa | 0 mm | - | 532 W/m² | - |
| 1787604703 | 32.78° C | 44% | 1050.5 hPa | 0 mm | - | 539 W/m² | - |
| 1787604398 | 32.22° C | 45% | 1050.7 hPa | 0 mm | - | 549 W/m² | - |
| 1787604098 | 32.22° C | 45% | 1050.4 hPa | 0 mm | - | 558 W/m² | - |
| 1787603798 | 32.22° C | 47% | 1050.6 hPa | 0 mm | - | 574 W/m² | - |
| 1787603493 | 32.22° C | 47% | 1050.4 hPa | 0 mm | - | 599 W/m² | - |
| 1787603189 | 32.22° C | 47% | 1050.5 hPa | 0 mm | - | 604 W/m² | - |
| 1787602885 | 31.67° C | 47% | 1050.7 hPa | 0 mm | - | 631 W/m² | - |
| 1787602580 | 31.67° C | 46% | 1050.9 hPa | 0 mm | - | 331 W/m² | - |
| 1787602275 | 32.22° C | 47% | 1051 hPa | 0 mm | - | 682 W/m² | - |
| 1787601974 | 32.78° C | 45% | 1050.8 hPa | 0 mm | - | 666 W/m² | - |
| 1787601670 | 32.78° C | 44% | 1051 hPa | 0 mm | - | 656 W/m² | - |
* Rain latest hour (hover to see other rain measurements)
** Current wind speed in m/s (hover to see current wind gust speed)